createdAt,value
2023-11-07T00:00:50.198Z,1.70
2023-11-07T00:01:51.860Z,1.48
2023-11-07T00:02:55.014Z,2.08
2023-11-07T00:03:57.760Z,1.40
2023-11-07T00:04:59.935Z,1.60
2023-11-07T00:06:01.535Z,1.55
2023-11-07T00:07:03.768Z,1.98
2023-11-07T00:08:05.242Z,1.70
2023-11-07T00:09:06.839Z,1.45
2023-11-07T00:10:09.129Z,1.60
2023-11-07T00:11:10.601Z,1.23
2023-11-07T00:12:12.629Z,1.92
2023-11-07T00:14:15.600Z,1.75
2023-11-07T00:15:17.925Z,2.13
2023-11-07T00:16:19.390Z,1.95
2023-11-07T00:17:22.159Z,1.52
2023-11-07T00:18:23.771Z,1.48
2023-11-07T00:19:28.023Z,1.67
2023-11-07T00:20:29.504Z,1.30
2023-11-07T00:21:31.074Z,1.38
2023-11-07T00:22:32.809Z,1.30
2023-11-07T00:23:34.410Z,1.38
2023-11-07T00:24:36.000Z,1.35
2023-11-07T00:25:37.584Z,1.73
2023-11-07T00:26:39.037Z,1.50
2023-11-07T00:27:40.859Z,1.80
2023-11-07T00:28:42.318Z,1.70
2023-11-07T00:29:46.166Z,1.73
2023-11-07T00:30:49.126Z,1.30
2023-11-07T00:31:53.702Z,1.50
2023-11-07T00:32:55.281Z,1.50
2023-11-07T00:33:56.945Z,1.60
2023-11-07T00:34:58.999Z,1.50
2023-11-07T00:37:01.909Z,1.45
2023-11-07T00:38:05.416Z,1.80
2023-11-07T00:39:07.981Z,1.30
2023-11-07T00:40:10.899Z,1.80
2023-11-07T00:41:14.308Z,1.15
2023-11-07T00:42:15.786Z,1.65
2023-11-07T00:43:18.517Z,1.67
2023-11-07T00:44:20.003Z,1.40
2023-11-07T00:45:21.501Z,1.33
2023-11-07T00:46:23.124Z,1.48
2023-11-07T00:47:24.620Z,1.63
2023-11-07T00:48:26.278Z,1.55
2023-11-07T00:49:28.560Z,1.48
2023-11-07T00:50:30.056Z,1.42
2023-11-07T00:51:31.788Z,1.77
2023-11-07T00:52:33.241Z,1.10
2023-11-07T00:53:34.745Z,1.52
2023-11-07T00:54:36.228Z,1.58
2023-11-07T00:55:37.693Z,1.55
2023-11-07T00:56:39.206Z,1.60
2023-11-07T00:57:40.668Z,1.52
2023-11-07T00:58:42.110Z,1.40
2023-11-07T00:59:43.622Z,1.60
2023-11-07T01:00:46.167Z,1.50
2023-11-07T01:01:47.651Z,1.75
2023-11-07T01:02:49.440Z,1.95
2023-11-07T01:03:51.174Z,1.88
2023-11-07T01:04:53.407Z,1.77
2023-11-07T01:05:55.616Z,1.60
2023-11-07T01:06:57.551Z,1.75
2023-11-07T01:07:59.077Z,1.73
2023-11-07T01:09:00.534Z,1.60
2023-11-07T01:10:02.027Z,1.40
2023-11-07T01:11:04.404Z,1.60
2023-11-07T01:12:06.597Z,1.40
2023-11-07T01:13:08.721Z,2.20
2023-11-07T01:15:11.741Z,1.50
2023-11-07T01:16:13.525Z,1.58
2023-11-07T01:17:15.015Z,1.30
2023-11-07T01:18:16.813Z,1.50
2023-11-07T01:19:18.528Z,1.50
2023-11-07T01:20:20.159Z,1.80
2023-11-07T01:21:21.598Z,1.40
2023-11-07T01:22:23.017Z,1.58
2023-11-07T01:23:24.490Z,1.38
2023-11-07T01:24:25.924Z,1.65
2023-11-07T01:25:28.709Z,1.85
2023-11-07T01:26:30.282Z,1.63
2023-11-07T01:27:32.466Z,1.60
2023-11-07T01:28:33.937Z,1.67
2023-11-07T01:29:35.541Z,2.00
2023-11-07T01:30:37.040Z,1.80
2023-11-07T01:31:38.467Z,1.60
2023-11-07T01:32:42.424Z,1.67
2023-11-07T01:33:44.007Z,1.50
2023-11-07T01:34:45.573Z,1.80
2023-11-07T01:35:47.058Z,1.50
2023-11-07T01:36:48.957Z,1.88
2023-11-07T01:37:52.176Z,1.73
2023-11-07T01:38:54.740Z,1.70
2023-11-07T01:39:56.307Z,2.05
2023-11-07T01:40:57.740Z,1.92
2023-11-07T01:41:59.298Z,1.80
2023-11-07T01:43:14.954Z,1.10
2023-11-07T01:44:16.420Z,1.50
2023-11-07T01:45:18.500Z,1.65
2023-11-07T01:47:24.824Z,1.70
2023-11-07T01:48:27.306Z,1.73
2023-11-07T01:49:29.086Z,1.92
2023-11-07T01:50:30.877Z,1.42
2023-11-07T01:51:32.574Z,2.00
2023-11-07T01:52:35.771Z,1.70
2023-11-07T01:53:37.378Z,1.70
2023-11-07T01:54:39.446Z,1.77
2023-11-07T01:56:44.344Z,1.92
2023-11-07T01:57:47.216Z,1.92
2023-11-07T01:58:49.327Z,2.03
2023-11-07T02:00:54.693Z,1.58
2023-11-07T02:01:59.817Z,1.75
2023-11-07T02:03:01.377Z,1.63
2023-11-07T02:04:04.151Z,1.60
2023-11-07T02:05:08.079Z,1.70
2023-11-07T02:06:09.754Z,2.20
2023-11-07T02:07:11.303Z,1.60
2023-11-07T02:08:12.911Z,1.33
2023-11-07T02:09:14.386Z,1.77
2023-11-07T02:10:16.009Z,1.63
2023-11-07T02:11:17.519Z,1.80
2023-11-07T02:12:18.974Z,1.48
2023-11-07T02:13:20.487Z,1.80
2023-11-07T02:14:36.768Z,1.95
2023-11-07T02:15:39.187Z,1.77
2023-11-07T02:16:40.644Z,1.73
2023-11-07T02:17:42.199Z,1.83
2023-11-07T02:18:43.846Z,1.80
2023-11-07T02:19:45.362Z,1.67
2023-11-07T02:20:47.239Z,1.75
2023-11-07T02:21:52.306Z,1.67
2023-11-07T02:23:00.832Z,1.77
2023-11-07T02:24:02.450Z,2.00
2023-11-07T02:25:04.189Z,1.73
2023-11-07T02:26:05.660Z,1.98
2023-11-07T02:27:07.871Z,2.25
2023-11-07T02:28:09.776Z,1.85
2023-11-07T02:29:11.264Z,1.60
2023-11-07T02:30:13.915Z,1.50
2023-11-07T02:31:15.428Z,1.48
2023-11-07T02:32:16.882Z,1.70
2023-11-07T02:33:21.126Z,1.30
2023-11-07T02:34:22.757Z,1.50
2023-11-07T02:35:24.888Z,1.75
2023-11-07T02:36:26.335Z,2.05
2023-11-07T02:37:27.798Z,1.88
2023-11-07T02:38:30.115Z,1.60
2023-11-07T02:39:31.744Z,2.58
2023-11-07T02:40:33.190Z,1.23
2023-11-07T02:41:35.289Z,1.88
2023-11-07T02:42:36.975Z,1.60
2023-11-07T02:43:38.768Z,1.88
2023-11-07T02:44:40.239Z,1.90
2023-11-07T02:45:41.707Z,1.60
2023-11-07T02:46:43.158Z,1.90
2023-11-07T02:47:44.697Z,2.88
2023-11-07T02:48:46.378Z,1.80
2023-11-07T02:49:47.916Z,1.67
2023-11-07T02:50:49.452Z,1.90
2023-11-07T02:51:50.958Z,1.58
2023-11-07T02:52:52.645Z,1.92
2023-11-07T02:53:54.472Z,1.23
2023-11-07T02:54:56.105Z,1.70
2023-11-07T02:55:57.522Z,1.67
2023-11-07T02:56:59.053Z,2.00
2023-11-07T02:58:00.903Z,1.95
2023-11-07T02:59:02.612Z,1.90
2023-11-07T03:00:05.353Z,2.40
2023-11-07T03:01:07.224Z,1.52
2023-11-07T03:02:08.899Z,1.92
2023-11-07T03:03:10.998Z,1.58
2023-11-07T03:04:12.949Z,1.75
2023-11-07T03:05:14.541Z,1.88
2023-11-07T03:06:16.444Z,1.30
2023-11-07T03:07:18.153Z,1.65
2023-11-07T03:08:19.669Z,1.70
2023-11-07T03:09:21.225Z,2.17
2023-11-07T03:10:22.773Z,1.75
2023-11-07T03:11:24.243Z,1.42
2023-11-07T03:12:26.607Z,1.70
2023-11-07T03:13:28.249Z,1.70
2023-11-07T03:14:29.854Z,1.80
2023-11-07T03:15:31.672Z,1.80
2023-11-07T03:16:35.081Z,1.73
2023-11-07T03:17:36.728Z,1.80
2023-11-07T03:18:38.828Z,1.65
2023-11-07T03:20:42.206Z,1.67
2023-11-07T03:21:43.675Z,1.50
2023-11-07T03:22:45.121Z,1.58
2023-11-07T03:23:46.633Z,1.60
2023-11-07T03:24:48.882Z,1.48
2023-11-07T03:25:50.478Z,1.40
2023-11-07T03:26:51.969Z,1.65
2023-11-07T03:27:53.416Z,1.80
2023-11-07T03:28:54.902Z,1.70
2023-11-07T03:29:56.427Z,1.73
2023-11-07T03:31:00.688Z,1.85
2023-11-07T03:32:02.142Z,2.05
2023-11-07T03:33:03.825Z,1.83
2023-11-07T03:34:05.607Z,1.90
2023-11-07T03:35:07.755Z,1.50
2023-11-07T03:37:11.004Z,1.88
2023-11-07T03:38:12.453Z,1.60
2023-11-07T03:39:14.044Z,1.77
2023-11-07T03:40:15.795Z,1.90
2023-11-07T03:41:17.857Z,1.33
2023-11-07T03:43:23.715Z,1.95
2023-11-07T03:44:25.321Z,1.48
2023-11-07T03:45:26.776Z,1.60
2023-11-07T03:46:28.279Z,1.65
2023-11-07T03:47:30.809Z,1.95
2023-11-07T03:48:32.454Z,1.92
2023-11-07T03:49:34.479Z,1.52
2023-11-07T03:51:38.279Z,1.95
2023-11-07T03:52:39.757Z,1.80
2023-11-07T03:53:41.290Z,1.63
2023-11-07T03:54:42.731Z,1.77
2023-11-07T03:55:44.165Z,1.58
2023-11-07T03:56:49.300Z,2.22
2023-11-07T03:57:50.941Z,1.60
2023-11-07T03:58:52.515Z,2.20
2023-11-07T03:59:54.076Z,2.17
2023-11-07T04:00:55.570Z,2.45
2023-11-07T04:01:57.757Z,2.10
2023-11-07T04:02:59.305Z,2.17
2023-11-07T04:04:00.919Z,2.60
2023-11-07T04:05:02.558Z,2.33
2023-11-07T04:06:04.329Z,2.35
2023-11-07T04:07:05.819Z,2.63
2023-11-07T04:08:07.257Z,2.08
2023-11-07T04:09:08.972Z,2.20
2023-11-07T04:10:10.880Z,2.25
2023-11-07T04:11:12.376Z,2.15
2023-11-07T04:12:13.823Z,2.10
2023-11-07T04:13:15.332Z,2.17
2023-11-07T04:14:19.003Z,2.17
2023-11-07T04:15:23.481Z,2.50
2023-11-07T04:16:25.111Z,2.15
2023-11-07T04:17:26.636Z,2.10
2023-11-07T04:18:28.305Z,2.10
2023-11-07T04:19:29.817Z,2.25
2023-11-07T04:20:34.165Z,2.10
2023-11-07T04:21:36.923Z,2.13
2023-11-07T04:22:38.933Z,1.80
2023-11-07T04:24:43.231Z,2.08
2023-11-07T04:25:45.274Z,2.20
2023-11-07T04:27:48.679Z,2.20
2023-11-07T04:28:50.165Z,1.58
2023-11-07T04:29:51.716Z,1.90
2023-11-07T04:30:56.228Z,2.15
2023-11-07T04:31:57.729Z,2.35
2023-11-07T04:32:59.248Z,2.10
2023-11-07T04:34:00.869Z,2.17
2023-11-07T04:35:04.082Z,2.28
2023-11-07T04:36:06.905Z,2.25
2023-11-07T04:37:08.494Z,2.08
2023-11-07T04:38:10.046Z,2.30
2023-11-07T04:39:11.864Z,1.92
2023-11-07T04:40:14.066Z,1.92
2023-11-07T04:41:15.537Z,2.13
2023-11-07T04:42:16.994Z,2.42
2023-11-07T04:43:18.487Z,2.20
2023-11-07T04:44:21.269Z,2.17
2023-11-07T04:45:23.144Z,2.33
2023-11-07T04:46:24.706Z,2.38
2023-11-07T04:47:26.160Z,2.38
2023-11-07T04:48:28.062Z,1.80
2023-11-07T04:49:31.079Z,2.60
2023-11-07T04:50:34.589Z,1.92
2023-11-07T04:51:37.440Z,2.50
2023-11-07T04:52:39.052Z,2.00
2023-11-07T04:53:41.013Z,2.22
2023-11-07T04:55:45.127Z,1.90
2023-11-07T04:56:46.740Z,1.75
2023-11-07T04:57:48.313Z,2.30
2023-11-07T04:58:57.255Z,2.20
2023-11-07T05:00:00.390Z,2.25
2023-11-07T05:01:03.130Z,2.33
2023-11-07T05:02:07.260Z,2.05
2023-11-07T05:03:10.268Z,2.20
2023-11-07T05:04:11.863Z,2.55
2023-11-07T05:05:15.653Z,2.38
2023-11-07T05:06:20.524Z,2.63
2023-11-07T05:07:22.233Z,2.20
2023-11-07T05:08:23.674Z,2.20
2023-11-07T05:09:26.554Z,2.72
2023-11-07T05:10:28.036Z,2.30
2023-11-07T05:11:29.533Z,2.55
2023-11-07T05:12:31.841Z,2.20
2023-11-07T05:13:33.339Z,2.38
2023-11-07T05:14:34.868Z,2.40
2023-11-07T05:15:36.349Z,2.55
2023-11-07T05:16:38.806Z,2.47
2023-11-07T05:17:41.004Z,2.13
2023-11-07T05:18:42.663Z,2.40
2023-11-07T05:19:44.196Z,2.30
2023-11-07T05:20:46.725Z,2.45
2023-11-07T05:21:48.271Z,2.70
2023-11-07T05:22:49.769Z,2.80
2023-11-07T05:23:51.282Z,2.45
2023-11-07T05:24:52.768Z,2.30
2023-11-07T05:25:54.312Z,1.83
2023-11-07T05:26:55.892Z,2.55
2023-11-07T05:27:57.399Z,2.58
2023-11-07T05:29:00.717Z,2.90
2023-11-07T05:30:02.236Z,2.60
2023-11-07T05:31:04.876Z,2.60
2023-11-07T05:32:06.668Z,2.75
2023-11-07T05:33:08.408Z,2.45
2023-11-07T05:34:10.054Z,3.00
2023-11-07T05:35:11.569Z,2.80
2023-11-07T05:36:17.063Z,2.65
2023-11-07T05:37:18.930Z,2.90
2023-11-07T05:38:21.866Z,2.63
2023-11-07T05:39:28.478Z,2.10
2023-11-07T05:40:30.035Z,3.15
2023-11-07T05:41:31.530Z,2.70
2023-11-07T05:42:32.985Z,2.70
2023-11-07T05:43:34.447Z,2.83
2023-11-07T05:44:35.997Z,3.03
2023-11-07T05:45:37.458Z,2.58
2023-11-07T05:46:38.927Z,3.33
2023-11-07T05:47:42.202Z,2.80
2023-11-07T05:48:43.951Z,3.55
2023-11-07T05:49:46.770Z,2.80
2023-11-07T05:50:48.463Z,2.97
2023-11-07T05:51:49.949Z,3.65
2023-11-07T05:52:51.398Z,2.15
2023-11-07T05:53:52.909Z,2.97
2023-11-07T05:54:54.805Z,2.55
2023-11-07T05:55:57.060Z,2.95
2023-11-07T05:56:58.699Z,3.22
2023-11-07T05:58:00.197Z,2.92
2023-11-07T05:59:01.980Z,2.63
2023-11-07T06:00:07.644Z,2.88
2023-11-07T06:01:09.218Z,2.65
2023-11-07T06:02:11.825Z,2.95
2023-11-07T06:03:14.656Z,2.83
2023-11-07T06:04:34.454Z,2.70
2023-11-07T06:05:36.441Z,3.00
2023-11-07T06:07:39.540Z,3.13
2023-11-07T06:08:41.126Z,3.22
2023-11-07T06:09:42.605Z,3.05
2023-11-07T06:10:44.344Z,3.13
2023-11-07T06:11:45.849Z,3.10
2023-11-07T06:12:47.299Z,3.10
2023-11-07T06:13:48.761Z,3.30
2023-11-07T06:14:50.288Z,3.33
2023-11-07T06:15:51.818Z,3.53
2023-11-07T06:16:55.855Z,3.80
2023-11-07T06:17:57.855Z,3.22
2023-11-07T06:20:01.075Z,2.90
2023-11-07T06:21:02.651Z,2.15
2023-11-07T06:22:04.737Z,3.33
2023-11-07T06:24:08.577Z,3.25
2023-11-07T06:25:12.002Z,2.90
2023-11-07T06:26:13.471Z,3.25
2023-11-07T06:27:15.197Z,3.17
2023-11-07T06:28:16.908Z,2.97
2023-11-07T06:29:18.362Z,3.10
2023-11-07T06:30:22.069Z,2.90
2023-11-07T06:31:27.882Z,2.72
2023-11-07T06:32:29.394Z,2.67
2023-11-07T06:33:30.993Z,3.15
2023-11-07T06:34:32.849Z,3.22
2023-11-07T06:35:34.849Z,2.92
2023-11-07T06:36:36.285Z,2.80
2023-11-07T06:37:37.724Z,3.40
2023-11-07T06:38:39.508Z,3.35
2023-11-07T06:39:41.004Z,2.53
2023-11-07T06:40:42.491Z,2.85
2023-11-07T06:41:44.102Z,2.95
2023-11-07T06:42:46.973Z,2.90
2023-11-07T06:43:49.562Z,2.60
2023-11-07T06:44:50.999Z,2.80
2023-11-07T06:45:52.533Z,2.67
2023-11-07T06:46:54.667Z,2.95
2023-11-07T06:47:56.359Z,2.97
2023-11-07T06:48:59.487Z,2.95
2023-11-07T06:50:02.692Z,2.42
2023-11-07T06:51:04.373Z,3.08
2023-11-07T06:52:06.872Z,2.72
2023-11-07T06:53:08.556Z,2.53
2023-11-07T06:54:10.356Z,2.90
2023-11-07T06:55:14.279Z,2.67
2023-11-07T06:56:16.334Z,3.22
2023-11-07T06:58:19.242Z,2.63
2023-11-07T06:59:20.766Z,3.72
2023-11-07T07:00:26.078Z,3.05
2023-11-07T07:01:29.215Z,2.95
2023-11-07T07:02:30.717Z,2.50
2023-11-07T07:03:32.365Z,2.42
2023-11-07T07:04:34.657Z,3.42
2023-11-07T07:05:36.261Z,2.75
2023-11-07T07:06:38.220Z,3.15
2023-11-07T07:07:41.516Z,3.00
2023-11-07T07:08:43.022Z,2.95
2023-11-07T07:09:44.443Z,3.10
2023-11-07T07:10:46.084Z,3.15
2023-11-07T07:11:48.777Z,2.92
2023-11-07T07:12:50.371Z,2.75
2023-11-07T07:13:53.645Z,2.90
2023-11-07T07:14:55.694Z,2.75
2023-11-07T07:15:57.483Z,2.85
2023-11-07T07:17:02.553Z,3.22
2023-11-07T07:18:07.019Z,3.10
2023-11-07T07:19:09.606Z,2.83
2023-11-07T07:20:14.696Z,3.03
2023-11-07T07:21:17.500Z,3.00
2023-11-07T07:22:19.168Z,2.95
2023-11-07T07:23:25.407Z,2.90
2023-11-07T07:24:28.631Z,2.80
2023-11-07T07:25:30.195Z,2.90
2023-11-07T07:26:31.725Z,2.40
2023-11-07T07:27:35.083Z,2.78
2023-11-07T07:28:40.083Z,2.70
2023-11-07T07:29:42.178Z,3.20
2023-11-07T07:30:46.514Z,2.75
2023-11-07T07:31:47.990Z,3.10
2023-11-07T07:32:49.528Z,2.75
2023-11-07T07:33:53.483Z,2.72
2023-11-07T07:34:54.973Z,2.63
2023-11-07T07:36:03.963Z,3.17
2023-11-07T07:37:07.495Z,2.38
2023-11-07T07:38:10.245Z,2.42
2023-11-07T07:39:28.989Z,2.72
2023-11-07T07:40:32.344Z,2.65
2023-11-07T07:41:33.869Z,2.83
2023-11-07T07:42:37.077Z,2.88
2023-11-07T07:43:39.862Z,2.40
2023-11-07T07:44:41.496Z,2.20
2023-11-07T07:45:43.894Z,2.70
2023-11-07T07:46:45.800Z,2.40
2023-11-07T07:47:47.810Z,2.17
2023-11-07T07:49:51.649Z,2.35
2023-11-07T07:50:53.242Z,2.20
2023-11-07T07:51:55.436Z,2.42
2023-11-07T07:52:57.493Z,2.35
2023-11-07T07:53:59.088Z,2.45
2023-11-07T07:55:10.043Z,2.05
2023-11-07T07:56:17.952Z,2.03
2023-11-07T07:57:19.606Z,2.25
2023-11-07T07:58:21.157Z,1.73
2023-11-07T07:59:25.961Z,2.65
2023-11-07T08:00:32.369Z,2.35
2023-11-07T08:01:36.700Z,1.98
2023-11-07T08:02:39.860Z,2.30
2023-11-07T08:03:42.484Z,2.60
2023-11-07T08:04:44.027Z,2.10
2023-11-07T08:05:46.009Z,2.33
2023-11-07T08:07:49.995Z,2.03
2023-11-07T08:08:51.504Z,2.38
2023-11-07T08:09:53.053Z,3.70
2023-11-07T08:11:01.581Z,2.50
2023-11-07T08:12:09.567Z,4.15
2023-11-07T08:14:13.533Z,2.30
2023-11-07T08:15:15.035Z,2.22
2023-11-07T08:16:16.516Z,2.15
2023-11-07T08:17:18.608Z,1.80
2023-11-07T08:18:20.311Z,2.15
2023-11-07T08:19:23.526Z,2.17
2023-11-07T08:20:25.925Z,1.83
2023-11-07T08:21:27.399Z,1.90
2023-11-07T08:22:28.878Z,1.90
2023-11-07T08:23:30.393Z,1.85
2023-11-07T08:24:31.921Z,1.90
2023-11-07T08:25:34.148Z,1.98
2023-11-07T08:26:36.946Z,2.20
2023-11-07T08:27:40.115Z,2.00
2023-11-07T08:28:44.749Z,2.15
2023-11-07T08:29:46.220Z,2.45
2023-11-07T08:30:48.176Z,2.10
2023-11-07T08:31:49.629Z,1.65
2023-11-07T08:32:52.254Z,1.98
2023-11-07T08:33:53.997Z,2.00
2023-11-07T08:34:55.522Z,1.98
2023-11-07T08:35:57.930Z,2.58
2023-11-07T08:37:07.189Z,1.95
2023-11-07T08:38:13.076Z,1.80
2023-11-07T08:39:25.486Z,2.17
2023-11-07T08:40:27.061Z,1.77
2023-11-07T08:41:28.560Z,1.83
2023-11-07T08:42:32.035Z,1.50
2023-11-07T08:43:33.670Z,3.55
2023-11-07T08:44:35.386Z,2.00
2023-11-07T08:45:36.952Z,2.10
2023-11-07T08:46:38.427Z,1.40
2023-11-07T08:47:39.968Z,2.03
2023-11-07T08:48:45.666Z,2.00
2023-11-07T08:49:47.428Z,1.60
2023-11-07T08:50:49.028Z,2.17
2023-11-07T08:51:53.407Z,1.70
2023-11-07T08:52:55.197Z,2.03
2023-11-07T08:53:57.675Z,2.25
2023-11-07T08:55:02.737Z,2.17
2023-11-07T08:56:04.569Z,1.92
2023-11-07T08:57:06.179Z,1.80
2023-11-07T08:58:07.721Z,1.75
2023-11-07T08:59:09.629Z,1.83
2023-11-07T09:00:22.486Z,2.08
2023-11-07T09:01:24.820Z,1.48
2023-11-07T09:02:26.390Z,2.53
2023-11-07T09:03:28.624Z,1.75
2023-11-07T09:04:30.144Z,1.60
2023-11-07T09:05:32.070Z,2.00
2023-11-07T09:06:33.624Z,1.75
2023-11-07T09:07:36.322Z,1.95
2023-11-07T09:08:37.968Z,1.73
2023-11-07T09:09:40.850Z,1.90
2023-11-07T09:10:42.308Z,2.25
2023-11-07T09:11:44.776Z,1.95
2023-11-07T09:12:46.421Z,1.52
2023-11-07T09:13:47.868Z,1.85
2023-11-07T09:14:49.441Z,2.42
2023-11-07T09:15:50.924Z,1.83
2023-11-07T09:16:53.836Z,1.80
2023-11-07T09:17:55.398Z,1.83
2023-11-07T09:18:57.044Z,1.95
2023-11-07T09:19:58.701Z,1.85
2023-11-07T09:21:00.370Z,1.20
2023-11-07T09:22:02.272Z,1.80
2023-11-07T09:23:04.922Z,1.70
2023-11-07T09:24:06.894Z,1.90
2023-11-07T09:26:10.513Z,1.60
2023-11-07T09:27:12.318Z,1.92
2023-11-07T09:28:14.099Z,1.63
2023-11-07T09:29:17.714Z,1.60
2023-11-07T09:30:19.476Z,1.75
2023-11-07T09:31:20.952Z,1.48
2023-11-07T09:32:23.436Z,1.80
2023-11-07T09:33:25.000Z,1.63
2023-11-07T09:34:26.681Z,1.75
2023-11-07T09:35:28.385Z,1.98
2023-11-07T09:36:31.289Z,1.23
2023-11-07T09:37:34.463Z,1.40
2023-11-07T09:38:46.944Z,2.10
2023-11-07T09:39:55.131Z,1.05
2023-11-07T09:40:58.076Z,2.17
2023-11-07T09:42:00.044Z,2.17
2023-11-07T09:44:05.149Z,1.88
2023-11-07T09:46:12.978Z,1.50
2023-11-07T09:47:14.662Z,2.00
2023-11-07T09:48:19.420Z,1.20
2023-11-07T09:49:21.085Z,1.63
2023-11-07T09:50:23.430Z,1.80
2023-11-07T09:51:26.867Z,1.60
2023-11-07T09:52:29.005Z,1.63
2023-11-07T09:53:31.791Z,2.08
2023-11-07T09:54:34.845Z,1.75
2023-11-07T09:55:39.035Z,1.92
2023-11-07T09:56:41.315Z,1.30
2023-11-07T09:57:43.823Z,1.80
2023-11-07T09:58:51.666Z,1.70
2023-11-07T09:59:55.512Z,1.20
2023-11-07T10:00:59.610Z,1.80
2023-11-07T10:02:01.147Z,2.00
2023-11-07T10:03:03.663Z,1.60
2023-11-07T10:04:05.618Z,1.60
2023-11-07T10:05:08.230Z,2.35
2023-11-07T10:06:09.951Z,1.88
2023-11-07T10:07:12.246Z,1.73
2023-11-07T10:08:13.874Z,1.33
2023-11-07T10:09:18.019Z,1.20
2023-11-07T10:10:19.950Z,1.42
2023-11-07T10:12:23.020Z,1.58
2023-11-07T10:13:24.498Z,1.17
2023-11-07T10:14:27.367Z,1.30
2023-11-07T10:15:29.028Z,1.05
2023-11-07T10:16:42.506Z,1.13
2023-11-07T10:18:01.171Z,1.58
2023-11-07T10:19:05.788Z,1.23
2023-11-07T10:20:09.095Z,1.95
2023-11-07T10:21:10.697Z,2.42
2023-11-07T10:22:12.250Z,1.42
2023-11-07T10:23:13.975Z,1.35
2023-11-07T10:24:16.966Z,1.38
2023-11-07T10:25:29.308Z,1.50
2023-11-07T10:26:31.430Z,1.50
2023-11-07T10:27:32.905Z,2.03
2023-11-07T10:28:34.358Z,1.30
2023-11-07T10:29:40.397Z,1.73
2023-11-07T10:30:47.804Z,1.00
2023-11-07T10:32:10.334Z,1.10
2023-11-07T10:33:14.047Z,1.40
2023-11-07T10:34:20.681Z,1.60
2023-11-07T10:35:22.508Z,1.85
2023-11-07T10:36:24.168Z,1.38
2023-11-07T10:37:33.739Z,1.60
2023-11-07T10:38:39.550Z,1.25
2023-11-07T10:39:41.051Z,1.30
2023-11-07T10:40:42.577Z,1.42
2023-11-07T10:41:47.224Z,1.83
2023-11-07T10:42:50.336Z,1.63
2023-11-07T10:43:51.778Z,1.30
2023-11-07T10:45:01.366Z,2.03
2023-11-07T10:46:10.194Z,1.58
2023-11-07T10:47:12.167Z,1.95
2023-11-07T10:48:13.980Z,1.40
2023-11-07T10:50:18.695Z,1.80
2023-11-07T10:51:20.872Z,1.48
2023-11-07T10:52:22.394Z,1.50
2023-11-07T10:53:23.875Z,2.55
2023-11-07T10:54:31.363Z,1.60
2023-11-07T10:55:32.852Z,2.03
2023-11-07T10:56:37.387Z,1.50
2023-11-07T10:57:47.436Z,1.20
2023-11-07T10:59:01.560Z,1.67
2023-11-07T11:00:12.162Z,1.55
2023-11-07T11:01:15.358Z,1.75
2023-11-07T11:02:20.222Z,1.25
2023-11-07T11:03:22.956Z,1.48
2023-11-07T11:04:28.814Z,1.50
2023-11-07T11:05:32.884Z,1.60
2023-11-07T11:06:34.678Z,1.33
2023-11-07T11:07:37.770Z,1.10
2023-11-07T11:08:40.100Z,1.50
2023-11-07T11:09:42.770Z,1.33
2023-11-07T11:10:44.520Z,1.67
2023-11-07T11:11:49.692Z,1.48
2023-11-07T11:12:51.820Z,1.30
2023-11-07T11:13:53.705Z,1.20
2023-11-07T11:15:58.605Z,1.42
2023-11-07T11:17:25.551Z,1.67
2023-11-07T11:19:02.036Z,1.13
2023-11-07T11:20:11.772Z,1.20
2023-11-07T11:21:19.782Z,1.27
2023-11-07T11:23:46.847Z,1.67
2023-11-07T11:24:48.283Z,1.75
2023-11-07T11:26:05.905Z,1.98
2023-11-07T11:27:25.758Z,1.20
2023-11-07T11:29:50.231Z,1.60
2023-11-07T11:30:56.389Z,1.50
2023-11-07T11:31:58.520Z,1.60
2023-11-07T11:33:11.152Z,1.42
2023-11-07T11:34:33.201Z,1.50
2023-11-07T11:35:39.303Z,1.23
2023-11-07T11:36:45.407Z,1.67
2023-11-07T11:38:20.801Z,1.00
2023-11-07T11:39:31.727Z,1.20
2023-11-07T11:40:56.672Z,1.10
2023-11-07T11:42:00.126Z,1.58
2023-11-07T11:43:04.976Z,1.10
2023-11-07T11:44:16.483Z,2.10
2023-11-07T11:45:40.402Z,1.40
2023-11-07T11:46:47.943Z,1.63
2023-11-07T11:47:52.319Z,1.30
2023-11-07T11:49:08.906Z,1.73
2023-11-07T11:50:17.026Z,2.83
2023-11-07T11:51:38.541Z,2.17
2023-11-07T11:52:40.892Z,1.25
2023-11-07T11:53:47.835Z,1.33
2023-11-07T11:54:53.393Z,1.38
2023-11-07T11:56:00.755Z,1.42
2023-11-07T11:57:02.282Z,1.10
2023-11-07T11:58:17.840Z,1.73
2023-11-07T11:59:20.546Z,1.55
2023-11-07T12:00:22.668Z,1.30
2023-11-07T12:01:26.246Z,1.48
2023-11-07T12:02:41.086Z,1.23
2023-11-07T12:03:47.214Z,1.80
2023-11-07T12:04:52.095Z,1.23
2023-11-07T12:06:07.186Z,1.58
2023-11-07T12:07:10.088Z,1.13
2023-11-07T12:08:37.495Z,1.80
2023-11-07T12:09:48.742Z,1.60
2023-11-07T12:10:57.357Z,1.02
2023-11-07T12:11:58.942Z,1.17
2023-11-07T12:13:01.883Z,1.38
2023-11-07T12:14:03.671Z,1.13
2023-11-07T12:15:08.332Z,1.77
2023-11-07T12:16:20.981Z,1.75
2023-11-07T12:17:23.988Z,1.83
2023-11-07T12:18:39.726Z,1.92
2023-11-07T12:19:44.954Z,1.33
2023-11-07T12:20:46.878Z,1.58
2023-11-07T12:22:52.496Z,1.80
2023-11-07T12:24:00.916Z,1.60
2023-11-07T12:25:17.809Z,1.70
2023-11-07T12:26:20.387Z,1.40
2023-11-07T12:27:21.880Z,1.20
2023-11-07T12:28:23.506Z,1.70
2023-11-07T12:29:36.504Z,1.70
2023-11-07T12:30:38.129Z,1.13
2023-11-07T12:31:40.695Z,2.42
2023-11-07T12:32:42.274Z,1.40
2023-11-07T12:33:44.368Z,1.60
2023-11-07T12:34:47.763Z,1.70
2023-11-07T12:35:56.196Z,1.20
2023-11-07T12:37:01.072Z,1.77
2023-11-07T12:38:07.293Z,1.70
2023-11-07T12:39:10.306Z,2.00
2023-11-07T12:40:13.498Z,1.40
2023-11-07T12:41:15.727Z,1.08
2023-11-07T12:42:17.377Z,1.63
2023-11-07T12:43:18.869Z,1.52
2023-11-07T12:44:24.101Z,1.95
2023-11-07T12:45:27.172Z,1.60
2023-11-07T12:46:32.024Z,1.80
2023-11-07T12:47:33.890Z,1.40
2023-11-07T12:49:39.994Z,1.83
2023-11-07T12:50:47.895Z,1.73
2023-11-07T12:51:49.603Z,1.65
2023-11-07T12:53:03.637Z,1.52
2023-11-07T12:54:05.840Z,1.70
2023-11-07T12:55:18.317Z,1.60
2023-11-07T12:56:25.272Z,1.60
2023-11-07T12:57:37.736Z,1.75
2023-11-07T12:58:39.358Z,1.30
2023-11-07T12:59:57.452Z,2.30
2023-11-07T13:01:01.885Z,1.15
2023-11-07T13:02:04.688Z,1.42
2023-11-07T13:03:10.209Z,0.95
2023-11-07T13:04:19.350Z,1.55
2023-11-07T13:05:21.137Z,1.75
2023-11-07T13:06:22.737Z,1.55
2023-11-07T13:07:28.464Z,1.50
2023-11-07T13:08:31.224Z,1.50
2023-11-07T13:09:36.128Z,1.60
2023-11-07T13:10:37.616Z,1.05
2023-11-07T13:11:40.808Z,1.20
2023-11-07T13:12:45.984Z,1.60
2023-11-07T13:13:47.945Z,1.30
2023-11-07T13:14:50.427Z,1.88
2023-11-07T13:15:52.124Z,1.40
2023-11-07T13:16:54.304Z,1.40
2023-11-07T13:18:00.090Z,1.50
2023-11-07T13:19:01.846Z,1.70
2023-11-07T13:20:09.475Z,1.65
2023-11-07T13:21:11.107Z,1.48
2023-11-07T13:22:18.621Z,2.30
2023-11-07T13:23:20.072Z,1.55
2023-11-07T13:24:21.820Z,2.10
2023-11-07T13:25:23.630Z,1.83
2023-11-07T13:26:25.225Z,1.70
2023-11-07T13:27:26.801Z,1.20
2023-11-07T13:28:29.245Z,1.63
2023-11-07T13:29:31.417Z,1.23
2023-11-07T13:30:32.919Z,1.45
2023-11-07T13:31:34.385Z,2.42
2023-11-07T13:32:36.541Z,2.38
2023-11-07T13:33:38.562Z,1.98
2023-11-07T13:34:40.268Z,1.50
2023-11-07T13:35:49.019Z,2.30
2023-11-07T13:36:50.572Z,1.77
2023-11-07T13:37:52.274Z,1.83
2023-11-07T13:38:53.877Z,2.05
2023-11-07T13:39:56.275Z,1.65
2023-11-07T13:40:57.907Z,1.60
2023-11-07T13:42:00.104Z,1.88
2023-11-07T13:43:01.706Z,1.33
2023-11-07T13:44:05.613Z,1.70
2023-11-07T13:45:07.876Z,1.55
2023-11-07T13:46:09.980Z,1.48
2023-11-07T13:47:12.319Z,2.10
2023-11-07T13:48:14.061Z,1.60
2023-11-07T13:49:15.691Z,2.35
2023-11-07T13:50:17.478Z,1.88
2023-11-07T13:51:19.032Z,1.30
2023-11-07T13:52:20.516Z,1.40
2023-11-07T13:53:21.965Z,1.67
2023-11-07T13:54:24.911Z,1.23
2023-11-07T13:55:28.579Z,1.65
2023-11-07T13:56:30.078Z,1.75
2023-11-07T13:57:31.637Z,1.52
2023-11-07T13:58:33.424Z,1.88
2023-11-07T13:59:34.916Z,1.60
2023-11-07T14:00:36.511Z,1.63
2023-11-07T14:01:39.585Z,1.30
2023-11-07T14:02:42.239Z,1.63
2023-11-07T14:03:43.848Z,1.25
2023-11-07T14:04:45.631Z,1.40
2023-11-07T14:05:47.166Z,1.40
2023-11-07T14:06:49.231Z,1.10
2023-11-07T14:07:52.318Z,1.50
2023-11-07T14:08:53.837Z,1.60
2023-11-07T14:09:56.550Z,1.33
2023-11-07T14:10:58.051Z,1.88
2023-11-07T14:12:01.921Z,1.40
2023-11-07T14:13:04.461Z,1.40
2023-11-07T14:14:07.912Z,1.70
2023-11-07T14:15:16.674Z,2.60
2023-11-07T14:16:18.227Z,1.73
2023-11-07T14:17:20.135Z,1.92
2023-11-07T14:18:27.123Z,2.08
2023-11-07T14:20:33.041Z,1.55
2023-11-07T14:21:36.049Z,1.75
2023-11-07T14:22:37.699Z,1.95
2023-11-07T14:23:41.357Z,1.73
2023-11-07T14:24:43.545Z,1.67
2023-11-07T14:25:45.398Z,1.65
2023-11-07T14:26:46.992Z,1.80
2023-11-07T14:27:49.017Z,1.48
2023-11-07T14:28:58.970Z,1.67
2023-11-07T14:30:15.710Z,1.70
2023-11-07T14:31:26.763Z,1.63
2023-11-07T14:32:29.621Z,1.27
2023-11-07T14:33:32.813Z,1.83
2023-11-07T14:34:35.086Z,1.35
2023-11-07T14:35:36.622Z,1.00